メインページ
METAR-TAF:

METAR-TAF

空港 :

コルドバ, アルゼンチン

緯度: 31-19S, 経度: 064-13W, 海抜: 484m

現時点の気象観測

当レポートは13分前の19:00(UTC)に作成
東/北東の風 3kt
気温 21°C
湿度 78%
気圧 1018 hPa
視程10km以上
高度4000ftの雲はほとんどない
高度5000ftの千切れ雲あり

METAR: SACO 251900Z 07003KT 9999 FEW040 BKN050 21/17 Q1018

時間: 16:13 (19:13 UTC)

予報

当レポートは2時間13分前の17:00(UTC)に作成
予報は25日の 18時(UTC)から 26日の 18時(UTC)まで有効
南東の風 5kt
視程10km以上
高度3000ftの雲は散在している
高度4000ftの雲は散在している, 塔状積雲.

TAF: SACO 251700Z 2518/2618 14005KT 9999 SCT030 SCT040TCU TX27/2618Z TN17/2609Z

4,000以上の空港の気象観測と天気予報(METAR報とTAF報)

利用可能な観測所は地図上に黄色い丸と赤い丸で示す。

丸の上にカーソルを重ねると観測所名を参照できる。

次にクリックすると気象観測と天気予報を参照できる。

マップの切り替え:黒色「×」印の緑ボタンをクリックして拡大、「-」印の緑ボタンをクリックして縮小、緑色の三角印をクリックして隣りの地図に切り替え


METAR-TAF: